Time;durP1;ratioP1;P1;durP2;ratioP2;P2;SDS_P1;SDS_P2;PMS_P1;PMS_P2;Temp;Humidity;BMP_temperature;BMP_pressure;BME280_temperature;BME280_humidity;BME280_pressure;Samples;Min_cycle;Max_cycle;Signal;HPM_P1;HPM_P2
2021/06/29 00:01:47;;;;;;;4.37;1.62;;;;;;;21.38;57.27;100040.02;1594099;86;21252;-87
2021/06/29 00:04:21;;;;;;;3.87;1.72;;;;;;;21.39;57.09;100046.50;1663764;78;21078;-88
2021/06/29 00:06:48;;;;;;;1.67;1.65;;;;;;;21.39;56.88;100042.98;1694242;80;21029;-89
2021/06/29 00:09:18;;;;;;;2.92;2.02;;;;;;;21.33;57.46;100048.13;1714301;81;21060;-86
2021/06/29 00:12:01;;;;;;;4.25;2.00;;;;;;;21.26;57.77;100053.78;1689370;82;21035;-92
2021/06/29 00:14:30;;;;;;;3.05;2.30;;;;;;;20.89;58.10;100007.34;1686472;82;21135;-89
2021/06/29 00:17:11;;;;;;;;;;;;;;;;;;;;;
2021/06/29 00:19:42;;;;;;;;;;;;;;;21.28;57.75;100054.33;1706686;81;21058;-89
2021/06/29 00:22:09;;;;;;;4.33;1.67;;;;;;;21.32;57.72;100047.84;1673911;83;20265;-87
2021/06/29 00:24:41;;;;;;;2.12;2.02;;;;;;;21.31;57.98;100040.80;1716983;82;21351;-91
2021/06/29 00:27:07;;;;;;;1.52;1.52;;;;;;;21.42;57.91;100047.88;1675342;80;21135;-87
2021/06/29 00:32:06;;;;;;;3.03;1.93;;;;;;;21.45;57.44;100047.36;1650974;84;21155;-88
2021/06/29 00:34:32;;;;;;;2.10;1.90;;;;;;;21.42;57.57;100047.05;1598252;86;21327;-86
2021/06/29 00:36:58;;;;;;;1.75;1.55;;;;;;;21.40;57.41;100051.41;1644853;85;21035;-88
2021/06/29 00:39:34;;;;;;;4.67;2.42;;;;;;;21.34;57.63;100049.22;1598494;87;21073;-89
2021/06/29 00:42:36;;;;;;;1.70;1.60;;;;;;;21.27;57.97;100058.69;1637838;86;21412;-92
2021/06/29 00:45:15;;;;;;;2.40;2.20;;;;;;;20.80;57.89;99989.41;1670825;82;21110;-91
2021/06/29 00:50:46;;;;;;;2.10;2.00;;;;;;;21.07;58.35;100057.52;1562715;88;21172;-89
2021/06/29 00:53:25;;;;;;;1.75;1.67;;;;;;;21.03;58.55;100046.94;1612529;87;21165;-88
2021/06/29 00:55:58;;;;;;;2.95;1.77;;;;;;;21.03;58.78;100051.55;1662352;84;21045;-92
2021/06/29 00:58:26;;;;;;;2.72;1.80;;;;;;;21.01;58.91;100053.16;1681306;84;21061;-90
2021/06/29 01:00:53;;;;;;;1.67;1.47;;;;;;;20.91;59.20;100053.94;1692213;82;21046;-88
2021/06/29 01:03:37;;;;;;;;;;;;;;;;;;;;;
2021/06/29 01:06:00;;;;;;;3.22;2.20;;;;;;;20.83;59.44;100057.67;1687636;83;21101;-89
2021/06/29 01:08:36;;;;;;;2.50;2.17;;;;;;;20.79;59.67;100066.86;1703728;82;21401;-91
2021/06/29 01:11:04;;;;;;;3.72;1.92;;;;;;;20.76;59.71;100073.63;1719326;82;21045;-88
2021/06/29 01:13:36;;;;;;;2.67;1.90;;;;;;;20.78;59.84;100072.02;1696223;82;21085;-89
2021/06/29 01:16:03;;;;;;;4.40;1.72;;;;;;;20.76;59.89;100072.83;1712584;81;21101;-89
2021/06/29 01:18:31;;;;;;;2.27;2.17;;;;;;;20.73;60.20;100074.14;1705431;83;21038;-89
2021/06/29 01:20:58;;;;;;;2.27;1.72;;;;;;;20.73;60.01;100075.50;1715601;82;21044;-90
2021/06/29 01:23:43;;;;;;;4.10;2.17;;;;;;;20.69;60.07;100074.94;1696590;81;21114;-88
2021/06/29 01:26:34;;;;;;;2.27;2.08;;;;;;;20.65;60.29;100073.84;1675910;84;21004;-88
2021/06/29 01:32:01;;;;;;;1.60;1.60;;;;;;;20.58;60.51;100069.42;1575585;86;21225;-88
2021/06/29 01:34:37;;;;;;;2.70;2.50;;;;;;;20.65;60.34;100074.65;1604692;82;21125;31
2021/06/29 01:37:07;;;;;;;;;;;;;;;20.71;60.21;100064.11;1611712;83;21611;-91
2021/06/29 01:39:33;;;;;;;2.35;2.15;;;;;;;20.69;60.32;100071.69;1582991;85;20222;-88
2021/06/29 01:42:04;;;;;;;2.58;2.40;;;;;;;20.64;60.44;100067.59;1605316;87;21149;-89
2021/06/29 01:44:34;;;;;;;2.42;2.00;;;;;;;20.66;60.53;100072.20;1639656;83;21101;-87
2021/06/29 01:47:10;;;;;;;4.85;2.72;;;;;;;19.51;60.21;99883.33;1670023;83;21900;-91
2021/06/29 01:49:37;;;;;;;3.25;2.08;;;;;;;20.70;60.30;100076.05;1663440;84;21565;-90
2021/06/29 01:55:37;;;;;;;4.08;2.58;;;;;;;20.79;60.11;100083.11;1673545;84;21055;-91
2021/06/29 01:58:18;;;;;;;2.30;2.10;;;;;;;20.86;59.89;100076.93;1592301;82;21186;-91
2021/06/29 02:00:58;;;;;;;3.90;2.05;;;;;;;20.85;59.91;100074.48;1586281;82;22901;31
2021/06/29 02:03:26;;;;;;;3.92;2.42;;;;;;;20.80;60.08;100076.09;1623821;86;21089;-91
2021/06/29 02:09:16;;;;;;;;;;;;;;;;;;;;;
2021/06/29 02:17:20;;;;;;;3.02;2.50;;;;;;;21.16;59.15;100068.67;1564286;89;21062;-89
2021/06/29 02:22:35;;;;;;;;;;;;;;;;;;;;;
2021/06/29 02:51:04;;;;;;;;;;;;;;;;;;;;;
2021/06/29 02:56:14;;;;;;;;;;;;;;;;;;;;;
2021/06/29 02:58:45;;;;;;;2.10;2.00;;;;;;;24.56;49.70;100063.38;1574426;89;21181;-90
2021/06/29 03:01:35;;;;;;;9.67;2.47;;;;;;;24.87;48.43;100065.22;1563691;88;21081;-91
2021/06/29 03:12:06;;;;;;;5.28;1.90;;;;;;;24.08;50.23;100074.16;1541230;91;21165;-89
2021/06/29 03:15:08;;;;;;;;;;;;;;;;;;;;;
2021/06/29 03:18:22;;;;;;;3.08;2.00;;;;;;;23.90;51.13;100077.00;1435519;97;21609;-90
2021/06/29 03:21:07;;;;;;;;;;;;;;;;;;;;;
2021/06/29 03:36:10;;;;;;;;;;;;;;;23.52;50.34;99956.99;1805188;77;24211;-91
2021/06/29 03:39:30;;;;;;;1.95;1.85;;;;;;;24.38;50.01;100096.22;1706655;82;20223;-92
2021/06/29 04:01:21;;;;;;;2.98;2.10;;;;;;;23.88;51.73;100098.24;1540064;86;20305;-93
2021/06/29 04:10:21;;;;;;;2.62;2.40;;;;;;;23.35;53.43;100096.08;1491065;94;21737;-91
2021/06/29 04:12:54;;;;;;;5.67;5.05;;;;;;;23.38;53.51;100101.52;1531216;89;21065;-90
2021/06/29 04:16:28;;;;;;;4.78;2.95;;;;;;;23.47;53.16;100105.25;1469655;96;21203;-90
2021/06/29 04:19:13;;;;;;;;;;;;;;;;;;;;;
2021/06/29 04:25:10;;;;;;;;;;;;;;;;;;;;;
2021/06/29 04:28:24;;;;;;;3.15;2.90;;;;;;;23.03;53.68;100096.45;1507868;93;21498;-92
2021/06/29 04:43:37;;;;;;;;;;;;;;;;;;;;;
2021/06/29 05:02:16;;;;;;;4.58;3.47;;;;;;;23.00;54.51;100081.52;1678143;82;21182;-88
2021/06/29 05:11:51;;;;;;;2.47;2.30;;;;;;;23.30;54.30;100096.09;1604466;83;21710;-90
2021/06/29 05:17:39;;;;;;;4.80;3.90;;;;;;;23.29;54.41;100098.56;1710011;83;21038;-90
2021/06/29 05:20:17;;;;;;;3.95;3.67;;;;;;;23.32;54.36;100101.54;1711493;82;21053;-91
2021/06/29 05:25:47;;;;;;;3.58;2.87;;;;;;;23.40;54.17;100091.98;1664728;81;21296;-93
2021/06/29 05:28:55;;;;;;;3.42;3.17;;;;;;;23.30;54.67;100097.45;1707351;81;21066;-90
2021/06/29 09:33:46;;;;;;;2.67;0.93;;;;;;;28.00;35.09;99982.20;1496913;89;21051;-88
2021/06/29 09:36:18;;;;;;;2.33;0.85;;;;;;;28.22;35.37;99992.85;1567763;90;21119;-87
2021/06/29 09:38:47;;;;;;;0.72;0.72;;;;;;;28.39;34.49;99975.67;1581585;90;21057;-88
2021/06/29 09:41:25;;;;;;;4.25;0.85;;;;;;;28.48;34.02;99981.45;1560726;90;21401;-85
2021/06/29 09:43:55;;;;;;;0.88;0.88;;;;;;;28.50;33.57;99966.05;1573280;90;21050;-90
2021/06/29 09:46:26;;;;;;;2.95;1.00;;;;;;;28.35;33.60;99970.05;1548204;89;21087;-86
2021/06/29 09:52:52;;;;;;;;;;;;;;;;;;;;;
2021/06/29 10:10:28;;;;;;;;;;;;;;;;;;;;;
2021/06/29 12:42:21;;;;;;;0.68;0.68;;;;;;;26.96;36.87;99939.20;1472011;95;21129;-85
2021/06/29 12:48:17;;;;;;;;;;;;;;;;;;;;;
2021/06/29 14:11:44;;;;;;;3.12;2.22;;;;;;;21.57;58.57;100031.67;1304091;104;21135;-92
2021/06/29 15:53:32;;;;;;;;;;;;;;;24.02;55.69;99951.44;1722768;81;28233;-86
2021/06/29 15:55:57;;;;;;;9.50;3.70;;;;;;;23.86;55.92;99946.11;1681510;83;20269;-86
2021/06/29 15:58:32;;;;;;;4.87;3.02;;;;;;;23.55;57.02;99944.75;1672562;85;21067;-87
2021/06/29 16:01:16;;;;;;;;;;;;;;;;;;;;;
2021/06/29 16:03:48;;;;;;;;;;;;;;;;;;;;;
2021/06/29 16:06:17;;;;;;;;;;;;;;;;;;;;;
2021/06/29 16:08:46;;;;;;;8.80;3.42;;;;;;;22.62;58.95;99943.92;1614637;87;21131;-87
2021/06/29 16:11:32;;;;;;;4.72;3.10;;;;;;;22.25;59.42;99898.97;1652872;84;21114;-89
2021/06/29 16:14:11;;;;;;;4.40;3.30;;;;;;;22.45;60.36;99936.11;1635708;85;21271;-87
2021/06/29 16:16:57;;;;;;;;;;;;;;;;;;;;;
2021/06/29 16:19:24;;;;;;;9.18;3.22;;;;;;;22.35;60.42;99928.78;1621490;87;21144;-85
2021/06/29 16:22:07;;;;;;;9.03;2.60;;;;;;;22.26;60.25;99928.27;1612576;87;21081;-89
2021/06/29 16:24:37;;;;;;;5.28;3.42;;;;;;;22.18;59.99;99929.62;1641145;85;21132;-86
2021/06/29 16:27:08;;;;;;;5.08;3.50;;;;;;;22.10;59.75;99922.86;1646205;85;21070;-88
2021/06/29 16:29:39;;;;;;;3.85;3.12;;;;;;;21.99;60.10;99922.61;1659434;84;21100;-86
2021/06/29 16:34:46;;;;;;;6.80;3.75;;;;;;;21.91;61.47;99922.63;1582187;86;21103;-85
2021/06/29 16:37:14;;;;;;;6.75;4.33;;;;;;;21.90;60.99;99914.20;1640241;86;21077;-89
2021/06/29 16:39:45;;;;;;;4.05;3.65;;;;;;;21.92;61.12;99913.39;1679060;83;21124;-87
2021/06/29 16:42:46;;;;;;;4.53;3.37;;;;;;;21.63;61.00;99858.92;1656240;84;21088;-89
2021/06/29 16:45:29;;;;;;;6.08;4.00;;;;;;;22.00;61.20;99907.14;1663769;83;21113;-88
2021/06/29 16:47:58;;;;;;;10.55;4.05;;;;;;;22.04;60.94;99902.78;1640322;85;21346;-86
2021/06/29 16:50:32;;;;;;;7.97;4.25;;;;;;;22.10;61.12;99905.77;1664158;85;21107;-87
2021/06/29 16:53:22;;;;;;;;;;;;;;;;;;;;;
2021/06/29 16:56:01;;;;;;;10.55;3.55;;;;;;;22.18;60.24;99909.27;1604343;85;21020;-86
2021/06/29 17:07:24;;;;;;;;;;;;;;;;;;;;;
2021/06/29 17:09:56;;;;;;;3.60;2.60;;;;;;;22.43;58.08;99921.16;1723796;82;21025;-89
2021/06/29 17:12:29;;;;;;;5.35;2.58;;;;;;;22.47;58.07;99938.52;1709736;79;22260;-87
2021/06/29 17:23:54;;;;;;;2.85;2.47;;;;;;;22.53;57.40;99937.44;1542094;91;21122;-88
2021/06/29 17:30:14;;;;;;;;;;;;;;;;;;;;;
2021/06/29 17:45:20;;;;;;;3.98;2.22;;;;;;;22.43;56.96;99936.09;1348154;97;21231;-87
2021/06/29 18:00:20;;;;;;;2.60;2.40;;;;;;;22.30;56.42;99942.92;1434470;94;21145;-80
2021/06/29 18:02:47;;;;;;;2.92;2.10;;;;;;;22.32;55.92;99951.59;1528702;90;21068;-76
2021/06/29 18:05:13;;;;;;;;;;;;;;;22.33;55.91;99952.69;1559812;89;21080;-77
2021/06/29 18:07:40;;;;;;;5.97;5.45;;;;;;;22.32;55.97;99950.23;1571621;89;20184;-77
2021/06/29 18:10:07;;;;;;;2.42;2.22;;;;;;;22.25;56.06;99946.47;1561989;90;21135;-76
2021/06/29 18:12:35;;;;;;;3.37;2.90;;;;;;;22.23;56.21;99958.67;1571550;89;21773;-77
2021/06/29 18:15:01;;;;;;;9.55;2.90;;;;;;;22.20;56.56;99966.00;1574205;89;21240;-77
2021/06/29 18:17:29;;;;;;;3.25;2.67;;;;;;;22.16;56.55;99969.25;1575472;89;21129;-76
2021/06/29 18:19:55;;;;;;;4.17;2.70;;;;;;;22.13;56.74;99968.46;1574736;89;22009;-76
2021/06/29 18:22:21;;;;;;;;;;;;;;;22.10;57.07;99967.64;1585828;88;22330;-77
2021/06/29 18:24:48;;;;;;;2.40;2.20;;;;;;;22.07;56.98;99970.09;1600747;87;20880;-83
2021/06/29 18:27:15;;;;;;;5.30;2.83;;;;;;;21.97;57.38;99971.72;1607755;88;21092;-80
2021/06/29 18:29:44;;;;;;;2.55;2.33;;;;;;;22.00;57.95;99973.62;1605735;87;21196;-78
2021/06/29 18:32:13;;;;;;;8.63;7.78;;;;;;;22.09;57.35;99970.63;1616632;87;21045;-78
2021/06/29 18:34:40;;;;;;;7.72;5.72;;;;;;;22.13;57.54;99974.41;1584749;87;21069;-79
2021/06/29 18:37:07;;;;;;;3.83;2.65;;;;;;;22.14;57.81;99971.43;1579288;89;21037;-77
2021/06/29 18:39:34;;;;;;;3.22;2.90;;;;;;;22.18;57.38;99979.03;1571582;88;21143;-79
2021/06/29 18:42:03;;;;;;;3.90;3.12;;;;;;;22.15;57.48;99978.50;1585340;88;21627;-78
2021/06/29 18:44:32;;;;;;;1.90;1.70;;;;;;;22.12;57.29;99982.30;1608141;87;21026;-78
2021/06/29 18:46:59;;;;;;;5.28;3.22;;;;;;;22.07;57.13;99981.75;1604145;87;21163;-79
2021/06/29 18:49:25;;;;;;;4.87;3.42;;;;;;;22.00;57.01;99978.52;1597429;88;21749;-79
2021/06/29 18:51:53;;;;;;;3.98;2.77;;;;;;;21.92;57.05;99981.22;1606747;87;21099;-77
2021/06/29 18:54:19;;;;;;;2.40;2.30;;;;;;;21.87;57.26;99983.95;1601292;87;21174;-78
2021/06/29 18:56:48;;;;;;;3.33;3.02;;;;;;;21.85;57.52;99994.78;1595658;88;21094;-78
2021/06/29 18:59:17;;;;;;;2.42;2.33;;;;;;;21.83;57.71;99995.61;1588832;88;21512;-78
2021/06/29 19:01:46;;;;;;;9.03;2.83;;;;;;;21.84;57.80;99996.70;1633284;85;21220;-78
2021/06/29 19:04:15;;;;;;;2.12;1.90;;;;;;;21.84;57.64;99999.41;1606811;86;21071;-79
2021/06/29 19:06:41;;;;;;;2.65;2.50;;;;;;;21.84;57.50;100000.77;1625349;86;21643;-78
2021/06/29 19:09:09;;;;;;;3.22;2.60;;;;;;;21.85;57.64;100005.64;1619652;87;21072;-77
2021/06/29 19:11:35;;;;;;;3.37;3.08;;;;;;;21.80;57.49;100005.11;1611391;86;21042;-77
2021/06/29 19:14:02;;;;;;;3.02;2.55;;;;;;;21.78;57.75;100005.92;1618600;87;21596;-81
2021/06/29 19:16:29;;;;;;;3.30;2.67;;;;;;;21.76;58.08;100007.55;1619215;86;21051;-81
2021/06/29 19:18:58;;;;;;;3.77;3.47;;;;;;;21.76;58.21;100006.74;1617605;86;21092;-79
2021/06/29 19:21:28;;;;;;;4.47;2.95;;;;;;;21.74;58.28;100008.91;1614592;87;21028;-80
2021/06/29 19:23:58;;;;;;;5.45;2.87;;;;;;;21.71;58.61;100015.67;1574927;86;21070;-80
2021/06/29 19:26:27;;;;;;;2.67;2.47;;;;;;;21.70;58.62;100016.77;1582021;89;21170;-78
2021/06/29 19:28:54;;;;;;;2.67;2.47;;;;;;;21.76;58.50;100010.26;1565563;89;21306;-81
2021/06/29 19:31:21;;;;;;;5.55;3.08;;;;;;;21.78;58.40;100010.00;1577131;89;21603;-79
2021/06/29 19:33:48;;;;;;;6.08;2.40;;;;;;;21.74;58.30;100007.01;1577030;89;21579;-79
2021/06/29 19:36:15;;;;;;;3.35;3.05;;;;;;;21.72;58.40;100009.73;1571917;89;21073;-80
2021/06/29 19:38:42;;;;;;;3.62;2.22;;;;;;;21.73;58.26;99999.14;1574561;89;21200;-80
2021/06/29 19:41:09;;;;;;;6.75;3.22;;;;;;;21.71;58.37;99994.52;1592712;88;21108;-78
2021/06/29 19:43:35;;;;;;;3.70;3.40;;;;;;;21.70;58.31;99994.23;1583232;89;21119;-77
2021/06/29 19:46:01;;;;;;;;;;;;;;;21.67;58.46;99985.31;1592913;87;21083;-78
2021/06/29 19:48:28;;;;;;;3.25;2.95;;;;;;;21.65;58.46;99991.55;1599818;87;20188;-81
2021/06/29 19:50:54;;;;;;;4.17;2.87;;;;;;;21.51;58.92;99985.30;1594509;87;21451;-80
2021/06/29 19:53:20;;;;;;;;;;;;;;;21.49;59.03;99979.34;1614227;86;21064;-82
2021/06/29 19:55:46;;;;;;;3.45;2.98;;;;;;;21.52;59.04;99980.69;1615348;87;20155;-80
2021/06/29 19:58:12;;;;;;;;;;;;;;;21.55;59.01;99980.16;1616022;87;21073;-80
2021/06/29 20:00:38;;;;;;;3.20;3.00;;;;;;;21.57;58.93;99977.44;1592526;88;20172;-79
2021/06/29 20:03:04;;;;;;;3.52;2.83;;;;;;;21.48;59.19;99975.53;1597115;88;21208;-78
2021/06/29 20:05:30;;;;;;;4.67;2.72;;;;;;;21.48;59.32;99976.89;1604432;87;21074;-78
2021/06/29 20:07:56;;;;;;;;;;;;;;;21.48;59.39;99977.69;1618378;87;21017;-76
2021/06/29 20:10:22;;;;;;;5.80;2.95;;;;;;;21.47;59.48;99973.34;1609179;86;20198;-80
2021/06/29 20:12:49;;;;;;;3.27;3.02;;;;;;;21.36;59.53;99972.50;1584482;89;21168;-78
2021/06/29 20:15:17;;;;;;;3.52;3.22;;;;;;;21.30;59.86;99980.33;1581925;89;21095;-78
2021/06/29 20:17:45;;;;;;;6.20;3.02;;;;;;;21.24;60.08;99976.54;1588941;88;21057;-78
2021/06/29 20:20:15;;;;;;;3.40;3.08;;;;;;;21.22;60.35;99971.93;1609199;88;21175;-77
2021/06/29 20:22:43;;;;;;;4.47;3.00;;;;;;;21.25;60.48;99964.08;1589647;87;21040;-78
2021/06/29 20:25:12;;;;;;;3.80;2.90;;;;;;;21.37;60.46;99963.82;1609197;86;21097;-78
2021/06/29 20:27:43;;;;;;;5.03;2.40;;;;;;;21.43;60.28;99966.80;1624394;86;21197;-79
2021/06/29 20:30:12;;;;;;;6.25;2.98;;;;;;;21.48;60.23;99964.14;1628114;86;21041;-78
2021/06/29 20:32:41;;;;;;;12.23;3.62;;;;;;;21.55;60.06;99956.55;1624791;86;21623;-80
2021/06/29 20:35:09;;;;;;;2.92;2.55;;;;;;;21.57;60.10;99957.65;1617157;86;21028;-80
2021/06/29 20:37:36;;;;;;;2.75;2.62;;;;;;;21.53;60.33;99956.53;1622913;86;21111;-76
2021/06/29 20:40:06;;;;;;;3.72;2.52;;;;;;;21.51;60.33;99953.28;1609219;86;21116;-80
2021/06/29 20:42:34;;;;;;;2.75;2.55;;;;;;;21.51;60.55;99956.83;1619980;86;21096;-80
2021/06/29 20:45:03;;;;;;;3.75;3.45;;;;;;;21.46;60.60;99956.81;1616277;86;21038;-77
2021/06/29 20:47:29;;;;;;;3.58;3.37;;;;;;;21.34;60.87;99961.64;1623298;86;21070;-79
2021/06/29 20:49:56;;;;;;;6.50;3.58;;;;;;;21.26;61.22;99966.24;1636792;86;21091;-78
2021/06/29 20:52:25;;;;;;;3.95;3.65;;;;;;;21.19;61.37;99968.68;1620996;86;21077;-79
2021/06/29 20:54:53;;;;;;;3.50;3.20;;;;;;;21.11;61.51;99969.19;1592255;87;21153;-78
2021/06/29 20:57:19;;;;;;;3.37;3.08;;;;;;;21.05;61.68;99966.74;1606951;85;21514;-80
2021/06/29 20:59:46;;;;;;;3.80;3.55;;;;;;;21.00;62.13;99969.72;1620230;86;21127;-79
2021/06/29 21:02:12;;;;;;;5.80;3.20;;;;;;;20.93;62.26;99964.28;1573069;88;21089;-78
2021/06/29 21:04:38;;;;;;;;;;;;;;;20.90;62.82;99959.38;1644700;86;21018;-80
2021/06/29 21:07:06;;;;;;;3.72;2.87;;;;;;;20.86;62.98;99960.45;1644667;85;20144;-78
2021/06/29 21:09:35;;;;;;;4.37;3.35;;;;;;;20.78;63.52;99965.84;1652621;85;21116;-80
2021/06/29 21:12:02;;;;;;;4.35;3.58;;;;;;;20.78;63.40;99968.55;1652235;85;21560;-78
2021/06/29 21:14:32;;;;;;;3.58;3.37;;;;;;;20.79;63.35;99964.78;1636369;86;21091;-79
2021/06/29 21:17:00;;;;;;;4.10;2.98;;;;;;;20.76;63.24;99961.23;1648297;86;21070;-77
2021/06/29 21:19:27;;;;;;;4.12;3.83;;;;;;;20.78;63.46;99965.84;1647029;86;21015;-77
2021/06/29 21:21:53;;;;;;;;;;;;;;;20.83;63.31;99961.52;1646144;86;21033;-77
2021/06/29 21:24:19;;;;;;;3.90;3.60;;;;;;;20.86;63.25;99959.64;1644428;85;20110;-77
2021/06/29 21:26:48;;;;;;;6.60;4.30;;;;;;;20.79;63.43;99961.23;1653797;85;21082;-76
2021/06/29 21:29:15;;;;;;;4.10;3.90;;;;;;;20.75;63.41;99966.91;1636787;86;21134;-79
2021/06/29 21:31:43;;;;;;;4.70;4.40;;;;;;;20.75;63.41;99970.97;1644696;85;21573;-76
2021/06/29 21:34:09;;;;;;;4.58;3.72;;;;;;;20.74;63.52;99974.23;1637141;85;21193;-79
2021/06/29 21:36:37;;;;;;;5.67;4.50;;;;;;;20.84;63.36;99983.47;1633612;86;21115;-78
2021/06/29 21:39:05;;;;;;;4.17;3.92;;;;;;;20.89;63.14;99980.77;1633793;85;21686;-80
2021/06/29 21:41:32;;;;;;;5.87;4.15;;;;;;;20.93;63.07;99977.27;1638510;85;21022;-76
2021/06/29 21:43:58;;;;;;;7.50;4.10;;;;;;;20.97;63.14;99974.30;1610134;86;21130;-79
2021/06/29 21:46:24;;;;;;;;;;;;;;;21.01;63.20;99982.72;1620349;86;21259;-80
2021/06/29 21:48:51;;;;;;;5.08;4.65;;;;;;;21.05;63.07;99972.97;1611401;86;20164;-77
2021/06/29 21:51:18;;;;;;;;;;;;;;;21.06;63.33;99978.67;1607615;86;21019;-78
2021/06/29 21:53:44;;;;;;;4.53;4.20;;;;;;;21.13;63.02;99975.14;1618790;86;20162;-78
2021/06/29 21:56:12;;;;;;;5.20;4.75;;;;;;;21.07;63.07;99974.87;1624544;86;21144;-77
2021/06/29 21:58:38;;;;;;;6.92;4.80;;;;;;;21.05;62.83;99977.58;1635006;85;21113;-77
2021/06/29 22:01:06;;;;;;;;;;;;;;;20.94;63.37;99966.70;1640728;85;21579;-78
2021/06/29 22:03:35;;;;;;;5.47;4.97;;;;;;;20.90;63.58;99970.22;1636349;86;20118;-77
2021/06/29 22:06:03;;;;;;;6.67;4.62;;;;;;;20.88;63.45;99973.19;1638123;86;21072;-75
2021/06/29 22:08:30;;;;;;;5.42;4.45;;;;;;;20.99;63.36;99969.98;1637784;86;21574;-77
2021/06/29 22:10:58;;;;;;;4.97;3.98;;;;;;;21.14;62.87;99965.95;1648037;86;21622;-78
2021/06/29 22:13:24;;;;;;;4.92;4.62;;;;;;;21.24;62.29;99965.15;1603133;87;21095;-77
2021/06/29 22:15:52;;;;;;;4.83;3.90;;;;;;;21.21;62.33;99957.58;1596972;86;21048;-77
2021/06/29 22:18:20;;;;;;;7.20;5.50;;;;;;;21.22;62.33;99957.03;1634337;86;21117;-77
2021/06/29 22:20:46;;;;;;;5.70;5.33;;;;;;;21.21;62.17;99964.35;1639797;86;21052;-75
2021/06/29 22:23:13;;;;;;;5.50;4.97;;;;;;;21.18;62.27;99968.39;1619973;86;21649;-76
2021/06/29 22:25:40;;;;;;;6.00;5.50;;;;;;;21.22;62.23;99962.45;1607488;86;21048;-75
2021/06/29 22:28:08;;;;;;;5.28;4.85;;;;;;;21.21;62.00;99961.64;1611611;87;21155;-77
2021/06/29 22:30:37;;;;;;;5.10;4.55;;;;;;;21.16;62.11;99957.55;1625839;86;21091;-77
2021/06/29 22:33:08;;;;;;;6.05;5.45;;;;;;;21.09;62.52;99959.70;1636171;84;21030;-70
2021/06/29 22:35:36;;;;;;;5.37;4.97;;;;;;;21.03;62.69;99958.88;1649171;85;21138;-76
2021/06/29 22:38:03;;;;;;;5.53;4.83;;;;;;;21.02;62.91;99959.14;1616428;87;21079;-75
2021/06/29 22:40:31;;;;;;;5.50;4.67;;;;;;;21.05;62.69;99956.70;1628468;86;21159;-77
2021/06/29 22:42:58;;;;;;;5.97;4.65;;;;;;;21.06;62.80;99961.58;1636985;86;21090;-77
2021/06/29 22:45:24;;;;;;;6.05;4.95;;;;;;;21.16;62.65;99962.42;1622523;86;21568;-76
2021/06/29 22:47:53;;;;;;;5.30;4.85;;;;;;;21.18;62.80;99961.61;1627509;86;21082;-76
2021/06/29 22:50:21;;;;;;;4.78;3.90;;;;;;;21.12;62.63;99959.98;1623902;86;21153;-75
2021/06/29 22:52:48;;;;;;;4.65;4.00;;;;;;;21.00;62.79;99956.69;1614479;86;21056;-76
2021/06/29 22:55:19;;;;;;;6.10;4.47;;;;;;;20.87;63.21;99962.61;1616020;85;21125;-76
2021/06/29 22:57:47;;;;;;;5.47;4.83;;;;;;;20.75;63.27;99958.23;1633006;86;21531;-76
2021/06/29 23:00:18;;;;;;;8.68;4.35;;;;;;;20.65;63.63;99962.27;1631489;86;21117;-73
2021/06/29 23:02:45;;;;;;;4.37;4.03;;;;;;;20.62;63.98;99954.66;1636224;85;21023;-75
2021/06/29 23:05:11;;;;;;;5.17;4.75;;;;;;;20.71;63.93;99965.27;1617360;86;21057;-75
2021/06/29 23:07:38;;;;;;;5.72;4.75;;;;;;;20.79;63.69;99962.59;1634082;86;21118;-75
2021/06/29 23:10:08;;;;;;;4.58;4.28;;;;;;;20.82;63.59;99966.12;1617206;86;21071;-76
2021/06/29 23:12:35;;;;;;;4.62;4.33;;;;;;;20.81;64.08;99967.20;1630405;86;21104;-75
2021/06/29 23:15:02;;;;;;;5.75;4.60;;;;;;;20.77;63.83;99977.74;1627259;86;20989;-74
2021/06/29 23:17:28;;;;;;;5.10;4.70;;;;;;;20.57;64.47;99981.70;1626817;86;21021;-74
2021/06/29 23:19:55;;;;;;;6.08;4.65;;;;;;;20.36;64.60;99978.05;1625956;86;21642;-76
2021/06/29 23:22:21;;;;;;;;;;;;;;;20.23;65.22;99980.70;1626807;86;21086;-75
2021/06/29 23:24:47;;;;;;;4.97;4.55;;;;;;;20.09;65.76;99980.33;1621334;86;20166;-76
2021/06/29 23:27:14;;;;;;;6.08;5.33;;;;;;;19.93;65.96;99976.70;1620734;87;21125;-76
2021/06/29 23:29:40;;;;;;;5.00;4.60;;;;;;;19.87;66.36;99980.97;1611921;87;21080;-76
2021/06/29 23:32:07;;;;;;;5.00;4.60;;;;;;;19.92;67.11;99981.83;1620554;87;21103;-77
2021/06/29 23:34:35;;;;;;;4.62;4.22;;;;;;;19.98;66.96;99977.27;1628185;87;20986;-74
2021/06/29 23:37:02;;;;;;;5.30;4.85;;;;;;;20.00;67.26;99980.02;1647795;85;21110;-77
2021/06/29 23:39:37;;;;;;;4.85;4.37;;;;;;;20.00;66.56;99974.60;1636136;86;21701;-76
2021/06/29 23:41:58;;;;;;;4.85;4.40;;;;;;;19.91;66.37;99978.02;1630585;86;21039;-76
2021/06/29 23:44:24;;;;;;;7.40;4.72;;;;;;;19.74;66.67;99977.64;1631599;86;21030;-75
2021/06/29 23:46:49;;;;;;;;;;;;;;;19.66;67.80;99976.71;1619540;86;21029;-76
2021/06/29 23:49:18;;;;;;;4.92;4.55;;;;;;;19.71;68.49;99975.95;1626097;86;20428;-76
2021/06/29 23:51:44;;;;;;;4.60;4.30;;;;;;;19.83;67.96;99982.86;1607322;87;21061;-74
2021/06/29 23:54:11;;;;;;;4.50;4.20;;;;;;;19.95;68.33;99973.75;1631484;86;21043;-75
2021/06/29 23:56:37;;;;;;;4.90;4.42;;;;;;;20.06;67.57;99968.69;1609061;87;21176;-77
2021/06/29 23:59:03;;;;;;;;;;;;;;;20.06;67.56;99980.03;1643936;86;21093;-75
